^^
Saratoga-Weather Station Historical Data
Daily Summary for August 23, 2020 Units:  English    Metric   Both
Daily Weekly Monthly Yearly Custom
  High: Low: Average:
Temperature: 57.2 °F 48.6 °F 54 °F
Dew Point: 55 °F 43.7 °F 52 °F
Humidity: 97% 82% 93%
Wind Speed: 13mph 0mph 2.3mph
Wind Gust: 23mph - -
Wind- - SW
Pressure: 30 in 29.8 in -
Precipitation: 0.98 in    
Historical Graphs
 
 
Tabular Data for August 23, 2020
Time Temperature Dew Point Pressure Wind Wind Speed Wind Gust Humidity Rainfall Rate (Hourly) solar
00:01 57.2 °F 54.9 °F 30 in SW 0.9 mph 9 mph 92% 0 in 0 W/m2
00:06 57.2 °F 54.9 °F 30 in NW 2 mph 3 mph 92% 0.01 in 0 W/m2
00:11 57 °F 54.7 °F 30 in NW 4 mph 9 mph 92% 0.01 in 0 W/m2
00:16 57 °F 54.7 °F 30 in WNW 2 mph 4 mph 92% 0.02 in 0 W/m2
00:21 57 °F 55 °F 30 in NNW 2 mph 3 mph 93% 0.02 in 0 W/m2
00:26 56.8 °F 54.9 °F 30 in Calm   7 mph 93% 0.03 in 0 W/m2
00:31 56.8 °F 54.9 °F 30 in North 0.9 mph 4 mph 93% 0.03 in 0 W/m2
00:36 56.8 °F 54.9 °F 30 in Calm   4 mph 93% 0.04 in 0 W/m2
00:41 56.8 °F 54.9 °F 30 in NW 2 mph 5 mph 93% 0.04 in 0 W/m2
00:46 56.7 °F 55 °F 30 in NW 0.9 mph 9 mph 94% 0.05 in 0 W/m2
00:51 56.7 °F 55 °F 30 in Calm   3 mph 94% 0.05 in 0 W/m2
01:09 56.7 °F 55 °F 30 in WNW 2.9 mph 4 mph 94% 0.04 in 0 W/m2
01:14 56.5 °F 54.9 °F 30 in NW 0.9 mph 6 mph 94% 0.03 in 0 W/m2
01:20 56.5 °F 54.9 °F 30 in NW 2.9 mph 6 mph 94% 0.04 in 0 W/m2
01:25 56.5 °F 54.9 °F 30 in Calm   9 mph 94% 0.02 in 0 W/m2
01:30 56.5 °F 54.9 °F 30 in WSW 4 mph 6 mph 94% 0.02 in 0 W/m2
01:35 56.7 °F 55 °F 30 in WNW 0.9 mph 4 mph 94% 0.02 in 0 W/m2
01:40 56.5 °F 54.9 °F 30 in Calm   3 mph 94% 0.02 in 0 W/m2
01:45 56.5 °F 54.9 °F 30 in Calm   2 mph 94% 0.02 in 0 W/m2
01:50 56.5 °F 54.9 °F 30 in NNE 0.9 mph 3 mph 94% 0.02 in 0 W/m2
01:55 56.5 °F 54.9 °F 30 in NE 2.9 mph 3 mph 94% 0.02 in 0 W/m2
02:00 56.3 °F 54.7 °F 30 in NW 2.9 mph 4 mph 94% 0.03 in 0 W/m2
02:05 56.3 °F 54.7 °F 30 in ESE 0.9 mph 3 mph 94% 0.03 in 0 W/m2
02:10 56.1 °F 54.5 °F 30 in WSW 0.9 mph 4 mph 94% 0.03 in 0 W/m2
02:15 56.1 °F 54.5 °F 30 in NW 2 mph 2 mph 94% 0.02 in 0 W/m2
02:20 56.1 °F 54.5 °F 30 in WNW 2 mph 3 mph 94% 0.03 in 0 W/m2
02:25 56.1 °F 54.7 °F 30 in Calm   4 mph 95% 0.04 in 0 W/m2
02:30 55.9 °F 54.5 °F 30 in South 0.9 mph 4 mph 95% 0.05 in 0 W/m2
02:35 55.9 °F 54.5 °F 30 in WNW 0.9 mph 4 mph 95% 0.06 in 0 W/m2
02:40 55.9 °F 54.5 °F 30 in NNW 2 mph 6 mph 95% 0.1 in 0 W/m2
02:45 55.8 °F 54.3 °F 30 in NW 2.9 mph 3 mph 95% 0.13 in 0 W/m2
02:50 55.8 °F 54.3 °F 30 in WNW 4 mph 4 mph 95% 0.13 in 0 W/m2
02:55 55.8 °F 54.3 °F 30 in Calm   3 mph 95% 0.15 in 0 W/m2
03:00 55.8 °F 54.3 °F 30 in NNW 4 mph 5 mph 95% 0.16 in 0 W/m2
03:05 55.8 °F 54.3 °F 30 in Calm   3 mph 95% 0.17 in 0 W/m2
03:10 55.8 °F 54.3 °F 30 in NNW 2 mph 5 mph 95% 0.18 in 0 W/m2
03:15 55.8 °F 54.3 °F 30 in NW 0.9 mph 2 mph 95% 0.19 in 0 W/m2
03:20 55.8 °F 54.3 °F 30 in Calm   1 mph 95% 0.19 in 0 W/m2
03:25 55.8 °F 54.3 °F 30 in WNW 0.9 mph 4 mph 95% 0.2 in 0 W/m2
03:30 55.6 °F 54.1 °F 30 in WNW 4 mph 5 mph 95% 0.2 in 0 W/m2
03:35 55.6 °F 54.1 °F 30 in West 0.9 mph 5 mph 95% 0.19 in 0 W/m2
03:40 55.6 °F 54.1 °F 30 in West 0.9 mph 3 mph 95% 0.14 in 0 W/m2
03:45 55.6 °F 54.1 °F 30 in WNW 6 mph 6 mph 95% 0.14 in 0 W/m2
03:50 55.6 °F 54.1 °F 30 in WNW 4.9 mph 5 mph 95% 0.15 in 0 W/m2
03:55 55.6 °F 54.1 °F 30 in WNW 2 mph 3 mph 95% 0.14 in 0 W/m2
04:00 55.6 °F 54.1 °F 30 in Calm   1 mph 95% 0.13 in 0 W/m2
04:05 55.6 °F 54.1 °F 30 in ENE 2.9 mph 5 mph 95% 0.13 in 0 W/m2
04:10 55.4 °F 54.3 °F 30 in NW 4 mph 9 mph 96% 0.13 in 0 W/m2
04:15 55.6 °F 54.1 °F 30 in West 4 mph 5 mph 95% 0.13 in 0 W/m2
04:20 55.6 °F 54.1 °F 30 in WNW 11 mph 13 mph 95% 0.13 in 0 W/m2
04:25 55.6 °F 54.1 °F 30 in NW 2.9 mph 3 mph 95% 0.11 in 0 W/m2
04:30 55.6 °F 54.1 °F 30 in West 2.9 mph 8 mph 95% 0.12 in 0 W/m2
04:35 55.6 °F 54.1 °F 30 in WNW 4 mph 4 mph 95% 0.13 in 0 W/m2
04:40 55.6 °F 54.1 °F 30 in West 4 mph 4 mph 95% 0.14 in 0 W/m2
04:45 55.4 °F 54 °F 30 in WNW 4 mph 5 mph 95% 0.11 in 0 W/m2
04:50 55.2 °F 53.8 °F 30 in Calm   2 mph 95% 0.09 in 0 W/m2
04:55 55.2 °F 53.8 °F 30 in SW 2 mph 5 mph 95% 0.09 in 0 W/m2
05:00 55 °F 53.6 °F 30 in SSW 0.9 mph 3 mph 95% 0.09 in 0 W/m2
05:05 55 °F 53.6 °F 30 in West 2.9 mph 4 mph 95% 0.08 in 0 W/m2
05:10 55 °F 53.6 °F 30 in NW 0.9 mph 3 mph 95% 0.07 in 0 W/m2
05:15 54.9 °F 53.4 °F 30 in Calm   1 mph 95% 0.06 in 0 W/m2
05:20 54.7 °F 53.2 °F 30 in Calm   3 mph 95% 0.06 in 0 W/m2
05:25 54.7 °F 53.2 °F 29.9 in Calm   4 mph 95% 0.06 in 0 W/m2
05:30 54.7 °F 53.2 °F 30 in WSW 0.9 mph 2 mph 95% 0.06 in 0 W/m2
05:35 54.5 °F 53.1 °F 29.9 in West 0.9 mph 4 mph 95% 0.04 in 0 W/m2
05:54 54.1 °F 52.7 °F 29.9 in Calm   4 mph 95% 0.03 in 0 W/m2
05:59 54.1 °F 53.1 °F 29.9 in ESE 0.9 mph 2 mph 96% 0.03 in 0 W/m2
06:04 54 °F 52.9 °F 29.9 in East 0.9 mph 3 mph 96% 0.03 in 0 W/m2
06:09 54 °F 52.9 °F 29.9 in Calm   1 mph 96% 0.02 in 0 W/m2
06:14 53.8 °F 52.7 °F 29.9 in Calm     96% 0.03 in 0 W/m2
06:19 53.8 °F 52.7 °F 29.9 in Calm     96% 0.03 in 0 W/m2
06:24 53.8 °F 52.7 °F 29.9 in Calm     96% 0.03 in 0 W/m2
06:29 53.6 °F 52.5 °F 29.9 in Calm   1 mph 96% 0.02 in 0 W/m2
06:34 53.6 °F 52.5 °F 29.9 in Calm   2 mph 96% 0.02 in 0 W/m2
06:39 53.4 °F 52.3 °F 29.9 in Calm     96% 0.03 in 0 W/m2
06:44 53.4 °F 52.3 °F 29.9 in Calm   2 mph 96% 0.03 in 0 W/m2
06:49 53.2 °F 52.2 °F 29.9 in Calm     96% 0.03 in 0 W/m2
06:54 53.2 °F 52.2 °F 29.9 in Calm     96% 0.02 in 0 W/m2
06:59 53.2 °F 52.2 °F 29.9 in Calm     96% 0.02 in 0 W/m2
07:04 53.2 °F 52.2 °F 29.9 in Calm     96% 0.02 in 0 W/m2
07:09 53.2 °F 52.2 °F 29.9 in Calm     96% 0.02 in 0 W/m2
07:14 53.1 °F 52 °F 29.9 in Calm     96% 0.03 in 0 W/m2
07:20 53.1 °F 52 °F 29.9 in Calm     96% 0.03 in 0 W/m2
07:25 53.1 °F 52 °F 29.9 in Calm     96% 0.04 in 0 W/m2
07:30 53.1 °F 52.2 °F 29.9 in Calm     97% 0.04 in 0 W/m2
07:35 53.1 °F 52 °F 29.9 in Calm   1 mph 96% 0.03 in 0 W/m2
07:40 53.1 °F 52 °F 29.9 in East 0.9 mph 2 mph 96% 0.04 in 0 W/m2
07:45 53.1 °F 52 °F 29.9 in Calm     96% 0.04 in 0 W/m2
07:50 53.1 °F 52.2 °F 29.9 in Calm     97% 0.04 in 0 W/m2
07:55 53.1 °F 52.2 °F 29.9 in East 2 mph 3 mph 97% 0.05 in 0 W/m2
08:00 53.1 °F 52.2 °F 29.9 in NE 2 mph 2 mph 97% 0.05 in 0 W/m2
08:05 53.2 °F 52.3 °F 29.9 in NE 2 mph 3 mph 97% 0.04 in 0 W/m2
08:10 53.2 °F 52.3 °F 29.9 in Calm   2 mph 97% 0.05 in 0 W/m2
08:15 53.4 °F 52.5 °F 29.9 in ENE 0.9 mph 3 mph 97% 0.03 in 0 W/m2
08:20 53.6 °F 52.7 °F 29.9 in WNW 2.9 mph 3 mph 97% 0.04 in 0 W/m2
08:25 54 °F 53.1 °F 29.9 in WNW 0.9 mph 3 mph 97% 0.03 in 0 W/m2
08:30 54 °F 53.1 °F 29.9 in Calm   2 mph 97% 0.04 in 0 W/m2
08:35 54.1 °F 53.2 °F 29.9 in West 0.9 mph 3 mph 97% 0.05 in 0 W/m2
08:40 54.1 °F 53.2 °F 29.9 in Calm   2 mph 97% 0.04 in 0 W/m2
08:48 54.3 °F 53.4 °F 29.9 in NE 0.9 mph 3 mph 97% 0.05 in 0 W/m2
08:53 54.3 °F 53.4 °F 29.9 in NNW 5 mph 5 mph 97% 0.04 in 0 W/m2
09:14 54.3 °F 53.2 °F 29.9 in NNW 2 mph 4 mph 96% 0.04 in 9 W/m2
09:19 54.3 °F 53.2 °F 29.9 in NNE 2.9 mph 5 mph 96% 0.03 in 11 W/m2
10:15 54.7 °F 53.2 °F 29.9 in Calm   4 mph 95% 0 in 32 W/m2
10:20 54.7 °F 53.2 °F 29.9 in Calm   1 mph 95% 0 in 30 W/m2
10:44 54.7 °F 53.2 °F 29.9 in NW 2.9 mph 4 mph 95% 0 in 44 W/m2
10:49 54.9 °F 53.4 °F 29.9 in Calm     95% 0 in 42 W/m2
10:54 54.9 °F 53.4 °F 29.9 in North 2.9 mph 4 mph 95% 0 in 44 W/m2
10:59 54.9 °F 53.4 °F 29.9 in NE 2 mph 2 mph 95% 0 in 44 W/m2
11:04 54.9 °F 53.4 °F 29.9 in Calm   1 mph 95% 0 in 37 W/m2
11:09 54.9 °F 53.4 °F 29.9 in East 0.9 mph 2 mph 95% 0 in 35 W/m2
11:14 54.9 °F 53.4 °F 29.9 in ENE 2 mph 3 mph 95% 0 in 47 W/m2
11:19 54.9 °F 53.4 °F 29.9 in Calm   2 mph 95% 0 in 44 W/m2
11:24 54.9 °F 53.4 °F 29.9 in North 2 mph 2 mph 95% 0 in 49 W/m2
11:29 54.9 °F 53.4 °F 29.9 in NNW 2 mph 3 mph 95% 0 in 58 W/m2
11:34 54.9 °F 53.4 °F 29.9 in NE 0.9 mph 2 mph 95% 0 in 40 W/m2
11:39 54.9 °F 53.2 °F 29.9 in NE 0.9 mph 1 mph 94% 0 in 30 W/m2
11:44 54.9 °F 53.2 °F 29.9 in ESE 2.9 mph 3 mph 94% 0 in 42 W/m2
12:05 54.9 °F 53.2 °F 29.9 in NW 4 mph 4 mph 94% 0.02 in 32 W/m2
12:10 54.9 °F 53.2 °F 29.9 in NW 2 mph 3 mph 94% 0.02 in 26 W/m2
12:15 54.7 °F 53.1 °F 29.9 in North 0.9 mph 4 mph 94% 0.03 in 40 W/m2
12:20 54.7 °F 53.1 °F 29.9 in Calm   3 mph 94% 0.04 in 33 W/m2
12:25 54.7 °F 53.1 °F 29.9 in WNW 2 mph 4 mph 94% 0.04 in 35 W/m2
12:30 54.5 °F 52.9 °F 29.9 in North 0.9 mph 2 mph 94% 0.05 in 47 W/m2
12:35 54.3 °F 52.7 °F 29.9 in Calm   3 mph 94% 0.05 in 32 W/m2
12:40 54.3 °F 52.7 °F 29.8 in NW 2.9 mph 6 mph 94% 0.05 in 39 W/m2
12:45 54.3 °F 52.7 °F 29.8 in NNW 2 mph 5 mph 94% 0.05 in 37 W/m2
12:50 54.3 °F 52.7 °F 29.8 in NW 4 mph 6 mph 94% 0.05 in 49 W/m2
12:55 54.1 °F 52.5 °F 29.8 in NNE 0.9 mph 3 mph 94% 0.05 in 40 W/m2
13:00 54.1 °F 52.5 °F 29.8 in Calm   5 mph 94% 0.06 in 39 W/m2
13:05 54.1 °F 52.5 °F 29.8 in NW 2 mph 3 mph 94% 0.05 in 42 W/m2
13:10 54.1 °F 52.5 °F 29.8 in NNE 2 mph 4 mph 94% 0.04 in 56 W/m2
13:15 54.1 °F 52.5 °F 29.8 in NE 2 mph 4 mph 94% 0.03 in 60 W/m2
13:20 54.1 °F 52.5 °F 29.8 in NE 0.9 mph 2 mph 94% 0.02 in 60 W/m2
13:25 54.3 °F 52.7 °F 29.8 in NNE 2 mph 3 mph 94% 0.02 in 62 W/m2
13:30 54.3 °F 52.7 °F 29.8 in NE 4 mph 8 mph 94% 0.02 in 65 W/m2
13:35 54.3 °F 52.7 °F 29.8 in NE 2.9 mph 3 mph 94% 0.02 in 47 W/m2
13:40 54.3 °F 52.7 °F 29.8 in West 6.9 mph 8 mph 94% 0.01 in 32 W/m2
13:45 54.3 °F 52.7 °F 29.8 in East 0.9 mph 4 mph 94% 0.01 in 14 W/m2
13:50 54.1 °F 52.5 °F 29.8 in Calm   9 mph 94% 0.01 in 19 W/m2
13:55 54.1 °F 52.5 °F 29.8 in NNE 4.9 mph 12 mph 94% 0.01 in 26 W/m2
14:00 54.1 °F 52.5 °F 29.8 in NW 2.9 mph 7 mph 94% 0.01 in 32 W/m2
14:06 54.1 °F 52.5 °F 29.8 in NNW 4 mph 4 mph 94% 0.01 in 18 W/m2
14:11 54.1 °F 52.5 °F 29.8 in North 4.9 mph 7 mph 94% 0.02 in 14 W/m2
14:16 54 °F 52.3 °F 29.8 in NW 2 mph 5 mph 94% 0.02 in 16 W/m2
14:21 54 °F 52.3 °F 29.8 in WNW 2 mph 4 mph 94% 0.02 in 35 W/m2
14:26 54 °F 52.3 °F 29.8 in NNE 0.9 mph 4 mph 94% 0.03 in 39 W/m2
14:31 54 °F 52.3 °F 29.8 in West 0.9 mph 3 mph 94% 0.03 in 23 W/m2
14:36 53.8 °F 52.2 °F 29.8 in ENE 2 mph 3 mph 94% 0.05 in 30 W/m2
14:41 53.8 °F 52.2 °F 29.8 in WNW 2 mph 9 mph 94% 0.06 in 30 W/m2
14:46 53.8 °F 52.2 °F 29.8 in NNW 2 mph 5 mph 94% 0.06 in 16 W/m2
14:51 54 °F 52.3 °F 29.8 in NW 2 mph 9 mph 94% 0.06 in 12 W/m2
14:56 53.8 °F 52.2 °F 29.8 in NNW 2 mph 4 mph 94% 0.07 in 11 W/m2
15:01 53.8 °F 52.2 °F 29.8 in NNW 2 mph 3 mph 94% 0.07 in 9 W/m2
15:06 53.8 °F 52.2 °F 29.8 in NNW 4 mph 9 mph 94% 0.08 in 9 W/m2
15:11 53.6 °F 52 °F 29.8 in WSW 0.9 mph 12 mph 94% 0.08 in 9 W/m2
15:16 53.4 °F 51.8 °F 29.8 in NNW 2 mph 4 mph 94% 0.09 in 7 W/m2
15:21 53.4 °F 52 °F 29.8 in NW 2.9 mph 6 mph 95% 0.1 in 5 W/m2
15:26 53.4 °F 52 °F 29.8 in SW 2.9 mph 11 mph 95% 0.11 in 0 W/m2
15:31 53.4 °F 52 °F 29.8 in WNW 4 mph 5 mph 95% 0.13 in 0 W/m2
15:36 53.4 °F 52 °F 29.8 in NW 2 mph 11 mph 95% 0.12 in 0 W/m2
15:41 53.6 °F 52.2 °F 29.8 in West 6.9 mph 11 mph 95% 0.13 in 0 W/m2
15:46 53.8 °F 52.2 °F 29.8 in NNW 0.9 mph 8 mph 94% 0.14 in 0 W/m2
15:51 53.6 °F 52 °F 29.8 in NW 4.9 mph 5 mph 94% 0.16 in 5 W/m2
15:56 53.6 °F 52.2 °F 29.8 in Calm   1 mph 95% 0.17 in 0 W/m2
16:01 53.6 °F 52.2 °F 29.8 in WSW 0.9 mph 3 mph 95% 0.17 in 0 W/m2
16:06 53.6 °F 52.2 °F 29.8 in WNW 2.9 mph 5 mph 95% 0.17 in 0 W/m2
16:11 53.6 °F 52.2 °F 29.8 in ENE 2 mph 4 mph 95% 0.18 in 0 W/m2
16:16 53.8 °F 52.3 °F 29.8 in Calm   3 mph 95% 0.19 in 0 W/m2
16:21 53.8 °F 52.2 °F 29.8 in North 2 mph 12 mph 94% 0.2 in 0 W/m2
16:26 53.8 °F 52.2 °F 29.8 in West 4 mph 8 mph 94% 0.19 in 0 W/m2
16:31 53.8 °F 52.2 °F 29.8 in West 4 mph 12 mph 94% 0.2 in 0 W/m2
16:36 53.8 °F 51.8 °F 29.8 in NE 2 mph 3 mph 93% 0.2 in 0 W/m2
16:41 53.6 °F 51.6 °F 29.8 in WNW 2 mph 12 mph 93% 0.2 in 0 W/m2
16:46 53.6 °F 51.6 °F 29.8 in WNW 0.9 mph 6 mph 93% 0.19 in 0 W/m2
17:07 53.2 °F 51.3 °F 29.8 in NW 2 mph 6 mph 93% 0.12 in 0 W/m2
17:12 53.2 °F 51.3 °F 29.8 in WNW 2.9 mph 7 mph 93% 0.11 in 0 W/m2
17:17 53.2 °F 51.3 °F 29.8 in North 2.9 mph 4 mph 93% 0.09 in 0 W/m2
17:22 53.2 °F 51.3 °F 29.8 in SW 0.9 mph 3 mph 93% 0.07 in 0 W/m2
17:27 53.2 °F 51.6 °F 29.8 in North 2 mph 3 mph 94% 0.06 in 0 W/m2
17:32 53.1 °F 51.4 °F 29.8 in NNW 0.9 mph 5 mph 94% 0.03 in 0 W/m2
17:37 53.2 °F 51.6 °F 29.8 in ESE 6.9 mph 7 mph 94% 0.02 in 0 W/m2
17:42 53.2 °F 51.6 °F 29.8 in NNW 2 mph 5 mph 94% 0.02 in 0 W/m2
17:47 53.2 °F 51.6 °F 29.8 in WSW 2.9 mph 7 mph 94% 0.02 in 0 W/m2
18:03 53.1 °F 51.4 °F 29.8 in NW 2 mph 4 mph 94% 0.02 in 0 W/m2
18:08 53.2 °F 51.6 °F 29.8 in NW 0.9 mph 5 mph 94% 0.02 in 0 W/m2
18:13 53.2 °F 51.6 °F 29.8 in NNW 2.9 mph 4 mph 94% 0.02 in 0 W/m2
18:18 53.1 °F 51.4 °F 29.8 in South 4 mph 6 mph 94% 0.02 in 0 W/m2
18:23 53.1 °F 51.4 °F 29.8 in WNW 2 mph 7 mph 94% 0.02 in 0 W/m2
18:28 53.2 °F 51.6 °F 29.8 in NE 4 mph 4 mph 94% 0.02 in 0 W/m2
18:33 53.1 °F 51.4 °F 29.8 in NNE 2.9 mph 4 mph 94% 0.02 in 0 W/m2
18:54 53.2 °F 51.6 °F 29.8 in SW 2 mph 4 mph 94% 0 in 0 W/m2
18:59 53.2 °F 51.6 °F 29.8 in NW 2.9 mph 7 mph 94% 0 in 0 W/m2
19:04 53.2 °F 51.6 °F 29.8 in Calm   8 mph 94% 0 in 0 W/m2
19:09 53.2 °F 51.6 °F 29.8 in ESE 2 mph 3 mph 94% 0 in 0 W/m2
19:14 53.2 °F 51.3 °F 29.8 in WSW 4 mph 6 mph 93% 0 in 0 W/m2
19:19 53.2 °F 51.3 °F 29.8 in NW 2 mph 10 mph 93% 0 in 0 W/m2
19:24 53.2 °F 51.3 °F 29.8 in NW 2 mph 4 mph 93% 0 in 0 W/m2
19:29 53.2 °F 51.3 °F 29.8 in Calm   8 mph 93% 0.01 in 0 W/m2
19:34 53.2 °F 51.3 °F 29.8 in West 4 mph 6 mph 93% 0.01 in 0 W/m2
19:39 53.2 °F 51.3 °F 29.8 in ESE 2 mph 8 mph 93% 0.01 in 0 W/m2
19:44 53.2 °F 51.3 °F 29.8 in WNW 0.9 mph 4 mph 93% 0.01 in 0 W/m2
19:49 53.2 °F 51.3 °F 29.8 in WNW 4 mph 7 mph 93% 0.01 in 0 W/m2
19:54 53.2 °F 51.3 °F 29.8 in NNE 4.9 mph 10 mph 93% 0.01 in 0 W/m2
19:59 53.6 °F 51.1 °F 29.8 in West 8.1 mph 16 mph 91% 0.01 in 0 W/m2
20:04 53.8 °F 51.3 °F 29.8 in WNW 0.9 mph 7 mph 91% 0.01 in 0 W/m2
20:09 53.8 °F 51.3 °F 29.8 in ENE 4.9 mph 16 mph 91% 0.01 in 0 W/m2
20:14 53.6 °F 51.1 °F 29.8 in Calm   4 mph 91% 0.01 in 0 W/m2
20:19 53.4 °F 50.9 °F 29.8 in ENE 2 mph 10 mph 91% 0.01 in 0 W/m2
20:24 53.4 °F 50.9 °F 29.8 in NW 2 mph 7 mph 91% 0.01 in 0 W/m2
20:29 53.4 °F 50.9 °F 29.8 in NNE 0.9 mph 9 mph 91% 0 in 0 W/m2
20:34 53.4 °F 50.9 °F 29.8 in SW 0.9 mph 4 mph 91% 0 in 0 W/m2
20:40 53.4 °F 50.9 °F 29.8 in NNE 0.9 mph 5 mph 91% 0 in 0 W/m2
20:45 53.4 °F 50.9 °F 29.8 in West 6 mph 11 mph 91% 0 in 0 W/m2
20:50 53.4 °F 50.5 °F 29.8 in NNE 2 mph 8 mph 90% 0 in 0 W/m2
20:55 53.2 °F 50.4 °F 29.8 in West 8.1 mph 8 mph 90% 0 in 0 W/m2
21:00 53.4 °F 50.5 °F 29.8 in NW 2.9 mph 9 mph 90% 0 in 0 W/m2
21:05 53.4 °F 50.2 °F 29.8 in NW 12.1 mph 12 mph 89% 0 in 0 W/m2
21:10 53.6 °F 50.2 °F 29.8 in West 10.1 mph 16 mph 88% 0 in 0 W/m2
21:15 53.6 °F 50.2 °F 29.8 in NNE 2 mph 10 mph 88% 0 in 0 W/m2
21:20 53.4 °F 50 °F 29.8 in WNW 13 mph 15 mph 88% 0 in 0 W/m2
21:25 52.9 °F 48.7 °F 29.8 in NW 11 mph 23 mph 86% 0.04 in 0 W/m2
21:30 51.6 °F 47.5 °F 29.8 in West 8.1 mph 13 mph 86% 0.05 in 0 W/m2
21:35 51.3 °F 47.5 °F 29.8 in West 6 mph 23 mph 87% 0.05 in 0 W/m2
21:40 51.1 °F 47.1 °F 29.8 in WSW 4.9 mph 12 mph 86% 0.05 in 0 W/m2
21:45 50.9 °F 46.9 °F 29.8 in NW 4.9 mph 12 mph 86% 0.05 in 0 W/m2
21:50 50.7 °F 46.9 °F 29.8 in NW 4.9 mph 10 mph 87% 0.05 in 0 W/m2
21:55 50.5 °F 46.8 °F 29.8 in WNW 4 mph 12 mph 87% 0.05 in 0 W/m2
22:00 50.4 °F 46.6 °F 29.8 in WNW 4.9 mph 10 mph 87% 0.05 in 0 W/m2
22:05 50.4 °F 46.9 °F 29.8 in West 6 mph 12 mph 88% 0.05 in 0 W/m2
22:10 50.4 °F 46.6 °F 29.8 in North 2.9 mph 8 mph 87% 0.05 in 0 W/m2
22:15 50.2 °F 46.4 °F 29.8 in WSW 2.9 mph 11 mph 87% 0.05 in 0 W/m2
22:20 50 °F 46 °F 29.8 in WSW 4 mph 11 mph 86% 0.05 in 0 W/m2
22:25 49.8 °F 45.5 °F 29.8 in WNW 2 mph 10 mph 85% 0.01 in 0 W/m2
22:30 49.6 °F 45.3 °F 29.8 in West 2.9 mph 11 mph 85% 0 in 0 W/m2
22:35 49.5 °F 45.1 °F 29.8 in WNW 0.9 mph 10 mph 85% 0 in 0 W/m2
22:40 49.3 °F 45 °F 29.8 in NW 2.9 mph 10 mph 85% 0 in 0 W/m2
22:45 49.3 °F 45 °F 29.8 in WSW 4 mph 6 mph 85% 0 in 0 W/m2
22:50 49.3 °F 44.6 °F 29.8 in NW 0.9 mph 10 mph 84% 0 in 0 W/m2
22:55 49.3 °F 44.4 °F 29.8 in Calm   3 mph 83% 0 in 0 W/m2
23:00 49.3 °F 44.1 °F 29.8 in North 2 mph 10 mph 82% 0 in 0 W/m2
23:05 49.3 °F 44.1 °F 29.8 in West 8.9 mph 12 mph 82% 0 in 0 W/m2
23:10 49.3 °F 44.1 °F 29.8 in West 6 mph 7 mph 82% 0 in 0 W/m2
23:15 49.3 °F 44.1 °F 29.8 in NW 12 mph 12 mph 82% 0 in 0 W/m2
23:20 49.1 °F 44.2 °F 29.8 in West 6 mph 11 mph 83% 0 in 0 W/m2
23:25 48.9 °F 44.1 °F 29.8 in WSW 4 mph 7 mph 83% 0 in 0 W/m2
23:43 48.9 °F 43.7 °F 29.8 in West 2.9 mph 6 mph 82% 0 in 0 W/m2
23:48 48.7 °F 43.9 °F 29.8 in WNW 2.9 mph 5 mph 83% 0 in 0 W/m2
23:53 48.6 °F 43.7 °F 29.8 in NW 10.1 mph 12 mph 83% 0 in 0 W/m2
23:58 48.6 °F 43.9 °F 29.8 in WNW 2.9 mph 3 mph 84% 0 in 0 W/m2
Juneau County Weather
Compliments of Weather Underground - 2 mb